»·PEaware :: FFT2163 KLAS-KLAX

FFT2163 :: KLAS-KLAX

FLIGHT INFORMATION

Flight Status: Arrived
Operator:
Frontier Airlines
More flights by this operator :: More flights under this callsign
Pilot: Luc P. (3613)
Aircraft: Unknown
(A32N)
More flights by this aircraft type
Origin: KLAS McCarran Intl
United States
Destination: KLAX Los Angeles Intl
United States
More flights between these airports :: More routes between these airports
Route: +BOACH8 RIKII SHTNR ANJLL4
File this flight plan on PilotEdge
Remarks: PBN / A1B1C1D1O1S1 DOF / 201012 REG / N307FR OPR / FFT PER / C RMK / TCAS)
Altitude:
(Current/Filed)
28,000ft
Speed:
(Current/Filed)
376kts
Departed: 12-Oct-20 08:46 AM
Arrived: 12-Oct-20 09:30 AM
Distance/Time
Traveled:
205nm/0:44
Distance/Time
To Go:
Arrived

Flight Plot

Page will automatically refresh every two minutes.

Flight plan parsing failed; only flown route is shown


Map Options




Map Legend


Flown Route
Filed Route
Departure Airport
Arrival Airport
Navaid (VOR, NDB)
Fix

Horizontal Profiles

Position Reports

Time Latitude Longitude Heading Altitude Ground
Speed
12-Oct-20 08:28 36.083436 -115.136225 161 2080ft 0kts
12-Oct-20 08:29 36.083436 -115.136225 161 2080ft 0kts
12-Oct-20 08:30 36.083436 -115.136225 161 2080ft 0kts
12-Oct-20 08:31 36.083436 -115.136225 161 2080ft 0kts
12-Oct-20 08:32 36.083436 -115.136225 161 2080ft 0kts
12-Oct-20 08:33 36.083436 -115.136225 161 2080ft 0kts
12-Oct-20 08:34 36.083436 -115.136225 161 2080ft 0kts
12-Oct-20 08:34 36.083436 -115.136225 161 2080ft 0kts
12-Oct-20 08:36 36.083436 -115.136225 161 2080ft 0kts
12-Oct-20 08:36 36.083866 -115.136403 161 2079ft 2kts
12-Oct-20 08:38 36.084194 -115.136539 161 2077ft 0kts
12-Oct-20 08:38 36.084194 -115.136539 161 2077ft 0kts
12-Oct-20 08:39 36.084074 -115.136367 86 2078ft 2kts
12-Oct-20 08:40 36.082828 -115.133762 178 2076ft 10kts
12-Oct-20 08:41 36.080129 -115.133763 179 2083ft 10kts
12-Oct-20 08:42 36.078274 -115.130973 90 2072ft 20kts
12-Oct-20 08:43 36.078286 -115.124256 88 2047ft 18kts
12-Oct-20 08:44 36.077132 -115.121257 177 2039ft 8kts
12-Oct-20 08:45 36.076395 -115.141595 270 2438ft 165kts
12-Oct-20 08:46 36.076644 -115.207805 269 5136ft 261kts
12-Oct-20 08:47 36.035643 -115.278949 196 6444ft 274kts
12-Oct-20 08:48 35.960235 -115.298466 188 6940ft 280kts
12-Oct-20 08:49 35.882028 -115.310234 182 10566ft 296kts
12-Oct-20 08:50 35.784177 -115.303845 175 13288ft 373kts
12-Oct-20 08:51 35.678031 -115.296188 180 17524ft 373kts
12-Oct-20 08:52 35.571157 -115.298294 183 19558ft 388kts
12-Oct-20 08:53 35.468009 -115.336404 211 22291ft 401kts
12-Oct-20 08:54 35.369483 -115.405635 212 24295ft 414kts
12-Oct-20 08:55 35.267469 -115.477932 213 26344ft 433kts
12-Oct-20 08:56 35.161221 -115.552832 214 27961ft 438kts
12-Oct-20 08:57 35.072414 -115.651934 230 28112ft 434kts
12-Oct-20 08:58 34.988145 -115.758127 230 28112ft 434kts
12-Oct-20 08:59 34.903707 -115.863677 230 28135ft 435kts
12-Oct-20 09:00 34.819372 -115.968588 230 28126ft 435kts
12-Oct-20 09:01 34.735798 -116.074533 231 28122ft 435kts
12-Oct-20 09:02 34.652190 -116.180907 230 28119ft 435kts
12-Oct-20 09:03 34.568178 -116.287038 230 28126ft 436kts
12-Oct-20 09:04 34.483888 -116.393069 230 27238ft 432kts
12-Oct-20 09:05 34.409509 -116.505278 243 25945ft 426kts
12-Oct-20 09:06 34.354854 -116.630833 245 24864ft 423kts
12-Oct-20 09:07 34.304384 -116.755734 245 23108ft 406kts
12-Oct-20 09:08 34.255035 -116.876992 245 21303ft 397kts
12-Oct-20 09:09 34.210224 -116.996712 251 19421ft 386kts
12-Oct-20 09:10 34.176120 -117.115319 252 17384ft 351kts
12-Oct-20 09:11 34.145949 -117.225346 251 15562ft 341kts
12-Oct-20 09:12 34.116104 -117.332513 252 13765ft 333kts
12-Oct-20 09:13 34.088996 -117.436134 253 12386ft 327kts
12-Oct-20 09:14 34.057757 -117.537778 247 11014ft 319kts
12-Oct-20 09:15 34.025201 -117.631069 246 10027ft 281kts
12-Oct-20 09:16 34.004021 -117.721350 261 9425ft 278kts
12-Oct-20 09:17 33.994670 -117.811143 263 8004ft 258kts
12-Oct-20 09:18 33.987862 -117.880060 263 6768ft 254kts
12-Oct-20 09:19 33.983317 -117.926574 263 6174ft 233kts
12-Oct-20 09:20 33.979804 -117.961900 263 5772ft 225kts
12-Oct-20 09:21 33.973286 -118.026830 263 5032ft 204kts
12-Oct-20 09:22 33.966951 -118.095142 262 4963ft 206kts
12-Oct-20 09:23 33.960079 -118.162021 263 3853ft 186kts
12-Oct-20 09:24 33.954645 -118.214821 263 2676ft 177kts
12-Oct-20 09:25 33.949540 -118.264447 263 1948ft 166kts
12-Oct-20 09:26 33.944533 -118.312924 262 1288ft 139kts
12-Oct-20 09:27 33.939882 -118.358974 262 542ft 137kts
12-Oct-20 09:28 33.935690 -118.399146 263 125ft 48kts
12-Oct-20 09:29 33.936285 -118.404408 265 125ft 4kts
12-Oct-20 09:30 33.936039 -118.406673 263 125ft 11kts
12-Oct-20 09:31 33.937148 -118.409027 354 125ft 7kts
12-Oct-20 09:32 33.938495 -118.409194 12 125ft 4kts
12-Oct-20 09:33 33.938911 -118.406838 82 125ft 6kts
12-Oct-20 09:34 33.939415 -118.405368 357 125ft 7kts
12-Oct-20 09:35 33.941091 -118.405639 351 125ft 3kts
12-Oct-20 09:36 33.941380 -118.405689 351 125ft 0kts
12-Oct-20 09:37 33.941494 -118.405234 84 125ft 1kts
12-Oct-20 09:38 33.941502 -118.405136 83 125ft 0kts
12-Oct-20 09:39 33.941502 -118.405136 83 125ft 0kts
12-Oct-20 09:40 33.941502 -118.405136 83 125ft 0kts

Navigation Log

Ident Type
Flight plan parsing failed, navigation log unavailable